Time;durP1;ratioP1;P1;durP2;ratioP2;P2;SDS_P1;SDS_P2;PMS_P1;PMS_P2;Temp;Humidity;BMP_temperature;BMP_pressure;BME280_temperature;BME280_humidity;BME280_pressure;Samples;Min_cycle;Max_cycle;Signal;HPM_P1;HPM_P2
2022/02/12 00:00:10;;;;;;;33.13;20.10;;;-0.10;99.90;;;;;;5092083;28;20889;-64
2022/02/12 00:02:37;;;;;;;33.80;21.03;;;0.00;99.90;;;;;;5091917;28;20982;-64
2022/02/12 00:05:04;;;;;;;33.60;18.90;;;0.00;99.90;;;;;;5092539;28;20491;-64
2022/02/12 00:07:31;;;;;;;38.63;20.47;;;0.10;99.90;;;;;;5091646;28;20450;-62
2022/02/12 00:09:58;;;;;;;41.77;20.87;;;0.20;99.90;;;;;;5092423;28;20474;-65
2022/02/12 00:12:25;;;;;;;59.83;21.17;;;0.30;99.90;;;;;;5077767;28;21043;-64
2022/02/12 00:14:55;;;;;;;25.83;17.10;;;0.20;99.90;;;;;;5073977;28;20439;-65
2022/02/12 00:17:22;;;;;;;37.20;20.00;;;0.20;99.90;;;;;;5072069;28;20863;-63
2022/02/12 00:19:49;;;;;;;36.10;19.27;;;0.30;99.90;;;;;;5072507;28;20491;-64
2022/02/12 00:22:16;;;;;;;59.30;20.90;;;0.30;99.90;;;;;;5071420;28;20443;-65
2022/02/12 00:24:43;;;;;;;39.73;21.50;;;0.40;99.90;;;;;;5071577;28;20935;-64
2022/02/12 00:27:10;;;;;;;35.17;19.80;;;0.30;99.90;;;;;;5071169;28;20447;-63
2022/02/12 00:29:37;;;;;;;33.63;19.07;;;0.30;99.90;;;;;;5071637;28;20471;-64
2022/02/12 00:32:05;;;;;;;31.97;17.83;;;0.30;99.90;;;;;;5071709;28;20483;-65
2022/02/12 00:34:32;;;;;;;25.97;17.33;;;0.30;99.90;;;;;;5071561;28;20461;-66
2022/02/12 00:36:59;;;;;;;26.00;17.50;;;0.30;99.90;;;;;;5074455;28;20450;-64
2022/02/12 00:39:26;;;;;;;62.03;20.33;;;0.30;99.90;;;;;;5090461;28;20497;-64
2022/02/12 00:41:53;;;;;;;68.57;23.67;;;0.20;99.90;;;;;;5083131;28;20452;-64
2022/02/12 00:44:21;;;;;;;31.23;18.30;;;0.10;99.90;;;;;;5080767;28;20478;-64
2022/02/12 00:46:48;;;;;;;39.40;18.53;;;0.00;99.90;;;;;;5075035;28;20466;-64
2022/02/12 00:49:16;;;;;;;34.07;16.47;;;0.00;99.90;;;;;;5083911;28;20510;-65
2022/02/12 00:51:43;;;;;;;28.17;17.87;;;-0.10;99.90;;;;;;5087540;28;20482;-65
2022/02/12 00:54:10;;;;;;;31.37;17.50;;;-0.20;99.90;;;;;;5088060;28;20486;-65
2022/02/12 00:56:37;;;;;;;28.67;17.93;;;-0.10;99.90;;;;;;5076665;28;20522;-65
2022/02/12 00:59:04;;;;;;;49.43;20.27;;;-0.10;99.90;;;;;;5081032;28;21115;-64
2022/02/12 01:01:32;;;;;;;85.57;21.90;;;-0.10;99.90;;;;;;5072086;28;20443;-65
2022/02/12 01:03:59;;;;;;;136.13;30.67;;;-0.20;99.90;;;;;;5071345;28;20486;-64
2022/02/12 01:06:27;;;;;;;91.67;24.00;;;-0.20;99.90;;;;;;5071162;28;20949;-64
2022/02/12 01:08:54;;;;;;;50.97;18.33;;;-0.20;99.90;;;;;;5071319;28;20543;-64
2022/02/12 01:11:21;;;;;;;152.40;29.03;;;-0.20;99.90;;;;;;5080701;28;20445;-65
2022/02/12 01:13:48;;;;;;;78.63;24.67;;;-0.20;99.90;;;;;;5073827;28;20447;-62
2022/02/12 01:16:15;;;;;;;103.20;23.33;;;-0.20;99.90;;;;;;5072512;28;20928;-62
2022/02/12 01:18:42;;;;;;;55.47;21.10;;;-0.30;99.90;;;;;;5089867;28;20474;-65
2022/02/12 01:21:09;;;;;;;38.50;18.50;;;-0.20;99.90;;;;;;5072958;28;20451;-66
2022/02/12 01:23:37;;;;;;;37.67;20.80;;;-0.10;99.90;;;;;;5080696;28;20462;-68
2022/02/12 01:26:04;;;;;;;37.20;20.50;;;-0.20;99.90;;;;;;5082227;28;20450;-66
2022/02/12 01:28:31;;;;;;;36.87;21.27;;;-0.10;99.90;;;;;;5081783;28;20471;-64
2022/02/12 01:30:58;;;;;;;34.60;19.77;;;0.00;99.90;;;;;;5082313;28;20478;-66
2022/02/12 01:33:25;;;;;;;43.37;21.73;;;0.10;99.90;;;;;;5082797;28;20471;-65
2022/02/12 01:35:52;;;;;;;51.73;21.67;;;0.10;99.90;;;;;;5082136;28;20503;-65
2022/02/12 01:38:18;;;;;;;45.83;21.47;;;0.10;99.90;;;;;;5080130;28;20557;-65
2022/02/12 01:40:46;;;;;;;151.83;30.27;;;0.10;99.90;;;;;;5080228;28;20936;-65
2022/02/12 01:43:14;;;;;;;314.50;45.73;;;0.10;99.90;;;;;;5080383;28;20542;-64
2022/02/12 01:45:41;;;;;;;122.90;26.83;;;0.00;99.90;;;;;;5080643;28;20533;-65
2022/02/12 01:48:08;;;;;;;99.07;24.63;;;0.10;99.90;;;;;;5079885;28;20510;-64
2022/02/12 01:50:35;;;;;;;187.07;34.67;;;0.00;99.90;;;;;;5079312;28;20447;-65
2022/02/12 01:53:02;;;;;;;79.63;22.27;;;-0.10;99.90;;;;;;5078681;28;20470;-65
2022/02/12 01:55:29;;;;;;;22.00;15.57;;;-0.30;99.90;;;;;;5077942;28;20482;-65
2022/02/12 01:57:57;;;;;;;31.60;18.80;;;-0.30;99.90;;;;;;5077469;28;20946;-65
2022/02/12 02:00:24;;;;;;;35.97;18.60;;;-0.20;99.90;;;;;;5076919;28;20450;-64
2022/02/12 02:02:51;;;;;;;37.30;19.27;;;-0.20;99.90;;;;;;5076836;28;20481;-65
2022/02/12 02:05:19;;;;;;;174.87;32.33;;;-0.10;99.90;;;;;;5077206;28;20475;-65
2022/02/12 02:07:46;;;;;;;147.70;29.40;;;-0.10;99.90;;;;;;5076641;28;20455;-65
2022/02/12 02:10:15;;;;;;;119.33;27.57;;;-0.20;99.90;;;;;;5076418;28;20530;-66
2022/02/12 02:12:42;;;;;;;61.47;21.07;;;-0.30;99.90;;;;;;5076586;28;20447;-66
2022/02/12 02:15:11;;;;;;;38.10;20.00;;;-0.30;99.90;;;;;;5075990;28;20948;-65
2022/02/12 02:17:38;;;;;;;55.43;20.00;;;-0.20;99.90;;;;;;5075679;28;20451;-66
2022/02/12 02:20:07;;;;;;;46.23;18.67;;;-0.10;99.90;;;;;;5076209;28;20481;-64
2022/02/12 02:22:42;;;;;;;35.73;17.40;;;-0.10;99.90;;;;;;5076548;28;20442;-66
2022/02/12 02:25:10;;;;;;;41.87;18.07;;;-0.10;99.90;;;;;;5077606;28;20483;-65
2022/02/12 02:27:37;;;;;;;33.33;17.30;;;-0.10;99.90;;;;;;5077425;28;20530;-65
2022/02/12 02:30:04;;;;;;;40.43;18.17;;;-0.20;99.90;;;;;;5076298;28;20498;-66
2022/02/12 02:32:31;;;;;;;34.17;18.53;;;-0.30;99.90;;;;;;5075299;28;20447;-64
2022/02/12 02:34:57;;;;;;;44.27;18.37;;;-0.20;99.90;;;;;;5074417;28;20450;-65
2022/02/12 02:37:25;;;;;;;259.53;40.30;;;-0.30;99.90;;;;;;5074785;28;20950;-64
2022/02/12 02:39:53;;;;;;;62.07;20.97;;;-0.30;99.90;;;;;;5074308;28;20509;-65
2022/02/12 02:42:20;;;;;;;44.00;19.10;;;-0.30;99.90;;;;;;5074699;28;20474;-64
2022/02/12 02:44:47;;;;;;;32.60;18.07;;;-0.30;99.90;;;;;;5074528;28;20504;-65
2022/02/12 02:49:58;;;;;;;43.73;18.13;;;-0.30;99.90;;;;;;5074830;28;20441;-65
2022/02/12 02:58:01;;;;;;;26.60;15.83;;;-0.30;99.90;;;;;;5078759;28;20451;-65
2022/02/12 03:00:28;;;;;;;24.50;13.40;;;-0.40;99.90;;;;;;5095250;28;20453;-64
2022/02/12 03:02:55;;;;;;;18.87;14.20;;;-0.40;99.90;;;;;;5095765;28;20442;-64
2022/02/12 03:05:22;;;;;;;28.77;14.47;;;-0.40;99.90;;;;;;5096041;28;20578;-65
2022/02/12 03:07:48;;;;;;;34.53;15.37;;;-0.30;99.90;;;;;;5089168;28;20461;-65
2022/02/12 03:10:17;;;;;;;49.17;14.80;;;-0.30;99.90;;;;;;5097513;28;20438;-65
2022/02/12 03:12:43;;;;;;;29.73;14.23;;;-0.40;99.90;;;;;;5097571;28;20462;-64
2022/02/12 03:15:10;;;;;;;35.90;15.43;;;-0.40;99.90;;;;;;5099626;28;20541;-64
2022/02/12 03:17:37;;;;;;;37.10;13.80;;;-0.40;99.90;;;;;;5101277;28;20444;-65
2022/02/12 03:20:05;;;;;;;34.27;14.70;;;-0.40;99.90;;;;;;5101641;28;20476;-64
2022/02/12 03:22:32;;;;;;;67.43;17.17;;;-0.40;99.90;;;;;;5100345;28;20821;-65
2022/02/12 03:24:58;;;;;;;46.40;15.10;;;-0.40;99.90;;;;;;5100321;28;20556;-65
2022/02/12 03:27:26;;;;;;;84.00;16.83;;;-0.30;99.90;;;;;;5100612;28;20983;-65
2022/02/12 03:29:53;;;;;;;41.97;15.57;;;-0.40;99.90;;;;;;5100113;28;20477;-65
2022/02/12 03:32:20;;;;;;;37.07;13.47;;;-0.40;99.90;;;;;;5101264;28;20541;-64
2022/02/12 03:34:48;;;;;;;25.50;12.77;;;-0.30;99.90;;;;;;5101411;28;20833;-65
2022/02/12 03:37:15;;;;;;;29.57;14.97;;;-0.20;99.90;;;;;;5101755;28;20450;-65
2022/02/12 03:39:42;;;;;;;32.57;14.80;;;-0.20;99.90;;;;;;5102252;28;20517;-65
2022/02/12 03:42:10;;;;;;;30.30;14.67;;;-0.30;99.90;;;;;;5102467;28;20446;-65
2022/02/12 03:44:38;;;;;;;29.83;12.80;;;-0.30;99.90;;;;;;5102950;28;20482;-65
2022/02/12 03:47:05;;;;;;;29.67;14.60;;;-0.20;99.90;;;;;;5102020;28;20505;-63
2022/02/12 03:49:32;;;;;;;46.17;16.30;;;-0.30;99.90;;;;;;5102545;28;20530;-66
2022/02/12 03:51:58;;;;;;;25.17;13.90;;;-0.30;99.90;;;;;;5101717;28;20454;-65
2022/02/12 03:54:25;;;;;;;38.97;15.83;;;-0.30;99.90;;;;;;5101950;28;20456;-65
2022/02/12 03:56:52;;;;;;;51.70;16.50;;;-0.30;99.90;;;;;;5101641;28;20442;-65
2022/02/12 03:59:19;;;;;;;26.53;14.07;;;-0.20;99.90;;;;;;5101478;28;20569;-65
2022/02/12 04:01:47;;;;;;;28.60;14.63;;;-0.30;99.90;;;;;;5101190;28;20522;-64
2022/02/12 04:04:14;;;;;;;33.47;15.47;;;-0.10;99.90;;;;;;5101720;28;20450;-65
2022/02/12 04:06:41;;;;;;;39.77;16.47;;;-0.10;99.90;;;;;;5101411;28;20446;-66
2022/02/12 04:09:08;;;;;;;39.37;16.17;;;-0.10;99.90;;;;;;5100991;28;20476;-65
2022/02/12 04:11:35;;;;;;;46.07;16.50;;;0.00;99.90;;;;;;5101660;28;20457;-65
2022/02/12 04:14:02;;;;;;;36.43;15.30;;;-0.10;99.90;;;;;;5100910;28;20438;-65
2022/02/12 04:16:29;;;;;;;35.67;14.97;;;-0.10;99.90;;;;;;5100847;28;20445;-66
2022/02/12 04:18:57;;;;;;;54.23;17.80;;;-0.10;99.90;;;;;;5101075;28;20830;-65
2022/02/12 04:21:24;;;;;;;74.00;16.83;;;-0.20;99.90;;;;;;5101691;28;20459;-65
2022/02/12 04:23:51;;;;;;;62.87;18.53;;;-0.10;99.90;;;;;;5101236;28;20446;-66
2022/02/12 04:26:18;;;;;;;59.40;19.27;;;-0.20;99.90;;;;;;5101161;28;20478;-66
2022/02/12 04:28:45;;;;;;;53.10;17.57;;;-0.20;99.90;;;;;;5100159;28;20561;-66
2022/02/12 04:31:12;;;;;;;35.30;16.60;;;-0.20;99.90;;;;;;5099878;28;20446;-66
2022/02/12 04:33:38;;;;;;;57.40;18.50;;;-0.20;99.90;;;;;;5100111;28;20478;-65
2022/02/12 04:36:07;;;;;;;54.57;16.83;;;-0.10;99.90;;;;;;5100075;28;20478;-66
2022/02/12 04:38:34;;;;;;;40.67;16.50;;;-0.10;99.90;;;;;;5099244;28;20470;-66
2022/02/12 04:41:03;;;;;;;34.30;16.37;;;0.00;99.90;;;;;;5099462;28;20446;-65
2022/02/12 04:43:30;;;;;;;47.17;18.57;;;0.10;99.90;;;;;;5099393;28;20537;-66
2022/02/12 04:45:57;;;;;;;76.70;19.13;;;0.00;99.90;;;;;;5098908;28;20482;-66
2022/02/12 04:48:24;;;;;;;80.37;19.63;;;0.00;99.90;;;;;;5099418;28;20473;-65
2022/02/12 04:50:51;;;;;;;47.70;16.97;;;-0.20;99.90;;;;;;5100587;28;20450;-66
2022/02/12 04:53:19;;;;;;;42.50;17.87;;;-0.20;99.90;;;;;;5100075;28;20562;-66
2022/02/12 04:55:46;;;;;;;57.73;18.30;;;-0.20;99.90;;;;;;5100269;28;20439;-66
2022/02/12 04:58:12;;;;;;;94.60;20.70;;;-0.30;99.90;;;;;;5099369;28;20469;-66
2022/02/12 05:00:41;;;;;;;53.43;17.47;;;-0.20;99.90;;;;;;5100308;28;20979;-66
2022/02/12 05:03:08;;;;;;;74.87;20.63;;;-0.20;99.90;;;;;;5100726;28;20963;-66
2022/02/12 05:05:35;;;;;;;29.70;15.63;;;-0.10;99.90;;;;;;5100121;28;20478;-65
2022/02/12 05:08:02;;;;;;;49.53;19.03;;;-0.10;99.90;;;;;;5099958;28;20529;-66
2022/02/12 05:10:31;;;;;;;60.30;18.07;;;-0.10;99.90;;;;;;5100701;28;20468;-65
2022/02/12 05:12:59;;;;;;;36.60;17.73;;;-0.10;99.90;;;;;;5100587;28;20451;-66
2022/02/12 05:15:26;;;;;;;82.17;20.40;;;-0.10;99.90;;;;;;5100625;28;20469;-65
2022/02/12 05:17:53;;;;;;;40.13;17.03;;;-0.10;99.90;;;;;;5100600;28;20451;-66
2022/02/12 05:20:20;;;;;;;56.47;18.17;;;-0.10;99.90;;;;;;5100946;28;20446;-66
2022/02/12 05:22:47;;;;;;;73.47;17.13;;;-0.10;99.90;;;;;;5100509;28;20449;-66
2022/02/12 05:25:14;;;;;;;43.67;17.27;;;-0.20;99.90;;;;;;5100777;28;20513;-65
2022/02/12 05:27:42;;;;;;;39.27;19.23;;;-0.30;99.90;;;;;;5100360;28;20524;-66
2022/02/12 05:30:10;;;;;;;65.80;21.00;;;-0.20;99.90;;;;;;5100610;28;20480;-65
2022/02/12 05:32:37;;;;;;;49.93;18.53;;;-0.20;99.90;;;;;;5101035;28;20481;-66
2022/02/12 05:35:04;;;;;;;88.23;20.60;;;-0.20;99.90;;;;;;5100616;28;20443;-66
2022/02/12 05:37:31;;;;;;;77.97;21.13;;;-0.20;99.90;;;;;;5100642;28;20454;-64
2022/02/12 05:39:58;;;;;;;121.43;22.63;;;-0.10;99.90;;;;;;5100968;28;20501;-65
2022/02/12 05:42:25;;;;;;;62.33;18.87;;;-0.10;99.90;;;;;;5100919;28;20440;-64
2022/02/12 05:44:53;;;;;;;43.97;18.50;;;-0.10;99.90;;;;;;5101234;28;20464;-65
2022/02/12 05:47:20;;;;;;;32.13;16.90;;;-0.20;99.90;;;;;;5100219;28;20442;-64
2022/02/12 05:49:47;;;;;;;43.03;18.03;;;-0.10;99.90;;;;;;5101738;28;20466;-64
2022/02/12 05:52:14;;;;;;;45.53;17.00;;;-0.10;99.90;;;;;;5101012;28;20600;-64
2022/02/12 05:54:41;;;;;;;45.77;19.37;;;-0.10;99.90;;;;;;5101381;28;20541;-65
2022/02/12 05:57:09;;;;;;;28.70;15.10;;;-0.20;99.90;;;;;;5100424;28;20507;-64
2022/02/12 05:59:35;;;;;;;111.97;26.20;;;-0.20;99.90;;;;;;5100093;28;21042;-64
2022/02/12 06:02:04;;;;;;;35.30;16.10;;;-0.30;99.90;;;;;;5100798;28;20831;-64
2022/02/12 06:04:32;;;;;;;44.40;17.90;;;-0.30;99.90;;;;;;5100402;28;21126;-64
2022/02/12 06:07:00;;;;;;;32.13;16.63;;;-0.30;99.90;;;;;;5099814;28;20601;-65
2022/02/12 06:09:27;;;;;;;42.97;18.57;;;-0.30;99.90;;;;;;5099739;28;20470;-65
2022/02/12 06:11:54;;;;;;;59.57;20.67;;;-0.30;99.90;;;;;;5100264;28;20450;-65
2022/02/12 06:14:21;;;;;;;60.23;20.27;;;-0.30;99.90;;;;;;5099114;28;20516;-65
2022/02/12 06:16:48;;;;;;;35.53;18.47;;;-0.30;99.90;;;;;;5099962;28;20474;-65
2022/02/12 06:19:16;;;;;;;33.83;16.80;;;-0.20;99.90;;;;;;5099435;28;20536;-64
2022/02/12 06:21:43;;;;;;;46.33;20.30;;;-0.20;99.90;;;;;;5099946;28;20482;-64
2022/02/12 06:24:10;;;;;;;51.70;19.07;;;-0.20;99.90;;;;;;5098791;28;20453;-64
2022/02/12 06:26:39;;;;;;;106.40;24.73;;;-0.20;99.90;;;;;;5100706;28;20558;-65
2022/02/12 06:29:06;;;;;;;47.17;19.17;;;-0.20;99.90;;;;;;5099255;28;20926;-65
2022/02/12 06:31:33;;;;;;;72.77;21.80;;;-0.30;99.90;;;;;;5099517;28;20496;-64
2022/02/12 06:33:59;;;;;;;47.63;16.83;;;-0.30;99.90;;;;;;5099412;28;20962;-65
2022/02/12 06:36:28;;;;;;;46.13;18.30;;;-0.30;99.90;;;;;;5099340;28;20454;-65
2022/02/12 06:38:54;;;;;;;90.27;22.23;;;-0.40;99.90;;;;;;5097789;28;20494;-64
2022/02/12 06:41:21;;;;;;;85.63;18.00;;;-0.50;99.90;;;;;;5098331;28;20438;-65
2022/02/12 06:43:48;;;;;;;47.13;17.70;;;-0.60;99.90;;;;;;5098152;28;20452;-64
2022/02/12 06:46:15;;;;;;;37.30;16.50;;;-0.60;99.90;;;;;;5099518;28;20501;-65
2022/02/12 06:48:42;;;;;;;51.07;17.43;;;-0.60;99.90;;;;;;5100492;28;20518;-64
2022/02/12 06:51:09;;;;;;;28.57;16.57;;;-0.50;99.90;;;;;;5102421;28;20462;-64
2022/02/12 06:53:37;;;;;;;35.43;17.83;;;-0.50;99.90;;;;;;5099972;28;20553;-66
2022/02/12 06:56:04;;;;;;;36.77;15.83;;;-0.50;99.90;;;;;;5100424;28;20450;-63
2022/02/12 06:58:31;;;;;;;28.33;15.80;;;-0.50;99.90;;;;;;5100308;28;20465;-66
2022/02/12 07:00:58;;;;;;;41.77;19.80;;;-0.50;99.90;;;;;;5100437;28;20557;-66
2022/02/12 07:03:25;;;;;;;48.70;18.87;;;-0.50;99.90;;;;;;5100144;28;20532;-65
2022/02/12 07:05:52;;;;;;;28.13;14.60;;;-0.50;99.90;;;;;;5099929;28;20564;-66
2022/02/12 07:08:19;;;;;;;32.73;14.93;;;-0.50;99.90;;;;;;5100157;28;20458;-66
2022/02/12 07:10:47;;;;;;;62.17;17.63;;;-0.50;99.90;;;;;;5100360;28;20465;-64
2022/02/12 07:13:14;;;;;;;61.20;19.07;;;-0.50;99.90;;;;;;5100773;28;20513;-66
2022/02/12 07:15:41;;;;;;;46.10;17.10;;;-0.50;99.90;;;;;;5098371;28;20442;-65
2022/02/12 07:18:07;;;;;;;32.17;16.30;;;-0.60;99.90;;;;;;5098410;28;20466;-65
2022/02/12 07:20:34;;;;;;;63.83;18.40;;;-0.60;99.90;;;;;;5098741;28;20536;-64
2022/02/12 07:23:01;;;;;;;48.00;17.17;;;-0.70;99.90;;;;;;5099021;28;20446;-65
2022/02/12 07:25:28;;;;;;;67.70;19.37;;;-0.70;99.90;;;;;;5099914;28;21091;-65
2022/02/12 07:27:58;;;;;;;42.07;14.67;;;-0.70;99.90;;;;;;5099374;28;20525;-65
2022/02/12 07:30:25;;;;;;;34.23;16.90;;;-0.70;99.90;;;;;;5099376;28;21120;-64
2022/02/12 07:32:52;;;;;;;52.27;18.80;;;-0.60;99.90;;;;;;5100404;28;20442;-65
2022/02/12 07:35:19;;;;;;;28.07;16.90;;;-0.50;99.90;;;;;;5099628;28;20450;-66
2022/02/12 07:37:48;;;;;;;65.13;19.00;;;-0.40;99.90;;;;;;5091752;28;20447;-64
2022/02/12 07:40:16;;;;;;;67.73;20.60;;;-0.40;99.90;;;;;;5096976;28;20523;-63
2022/02/12 07:42:44;;;;;;;37.97;17.30;;;-0.50;99.90;;;;;;5097372;28;20442;-65
2022/02/12 07:45:12;;;;;;;41.20;19.07;;;-0.60;99.90;;;;;;5097776;28;21007;-64
2022/02/12 07:47:39;;;;;;;32.97;15.60;;;-0.60;99.90;;;;;;5097626;28;20478;-65
2022/02/12 07:50:08;;;;;;;35.97;15.20;;;-0.60;99.90;;;;;;5098050;28;20962;-64
2022/02/12 07:52:35;;;;;;;25.70;15.03;;;-0.60;99.90;;;;;;5098467;28;20454;-64
2022/02/12 07:55:02;;;;;;;40.53;17.10;;;-0.40;99.90;;;;;;5097665;28;20475;-66
2022/02/12 07:57:29;;;;;;;29.80;15.37;;;-0.30;99.90;;;;;;5097598;28;20446;-65
2022/02/12 07:59:56;;;;;;;36.17;19.30;;;-0.20;99.90;;;;;;5096483;28;21045;-64
2022/02/12 08:02:24;;;;;;;36.70;17.53;;;-0.30;99.90;;;;;;5094341;28;20458;-63
2022/02/12 08:04:51;;;;;;;49.80;19.27;;;-0.30;99.90;;;;;;5097418;28;20452;-66
2022/02/12 08:07:29;;;;;;;43.43;16.77;;;-0.30;99.90;;;;;;5096449;28;20949;-65
2022/02/12 08:09:56;;;;;;;42.30;16.30;;;-0.20;99.90;;;;;;5096873;28;20458;-69
2022/02/12 08:12:23;;;;;;;61.07;18.07;;;-0.20;99.90;;;;;;5093350;28;20446;-64
2022/02/12 08:14:52;;;;;;;37.37;16.83;;;0.00;99.90;;;;;;5093010;28;20525;-63
2022/02/12 08:17:21;;;;;;;30.27;17.07;;;0.00;99.90;;;;;;5095305;28;20457;-66
2022/02/12 08:19:50;;;;;;;88.30;20.17;;;0.00;99.90;;;;;;5100597;28;20470;-65
2022/02/12 08:22:18;;;;;;;31.83;15.33;;;0.00;99.90;;;;;;5102507;28;20449;-65
2022/02/12 08:24:46;;;;;;;52.53;16.40;;;0.10;99.90;;;;;;5104339;28;20450;-65
2022/02/12 08:27:14;;;;;;;34.43;14.93;;;0.30;99.90;;;;;;5099862;28;20474;-66
2022/02/12 08:29:42;;;;;;;24.30;16.10;;;0.20;99.90;;;;;;5103554;28;20501;-64
2022/02/12 08:32:10;;;;;;;23.20;14.90;;;0.40;99.90;;;;;;5098661;28;20453;-66
2022/02/12 08:34:37;;;;;;;28.33;15.60;;;0.50;99.90;;;;;;5094169;28;20439;-63
2022/02/12 08:37:06;;;;;;;26.60;15.27;;;0.60;99.90;;;;;;5094450;28;20877;-65
2022/02/12 08:39:32;;;;;;;24.73;15.40;;;0.60;99.90;;;;;;5096468;28;20454;-65
2022/02/12 08:41:59;;;;;;;26.30;14.97;;;0.70;99.90;;;;;;5094472;28;21015;-66
2022/02/12 08:44:26;;;;;;;24.43;14.00;;;0.80;99.90;;;;;;5095992;28;20452;-64
2022/02/12 08:46:53;;;;;;;24.27;15.80;;;0.80;99.90;;;;;;5102463;28;20532;-65
2022/02/12 08:49:20;;;;;;;31.10;14.80;;;0.90;99.90;;;;;;5099363;28;20496;-66
2022/02/12 08:51:47;;;;;;;22.70;14.30;;;0.90;99.90;;;;;;5100598;28;20482;-66
2022/02/12 08:54:16;;;;;;;33.93;16.00;;;0.90;99.90;;;;;;5098709;28;20478;-66
2022/02/12 08:56:44;;;;;;;24.07;15.47;;;0.90;99.90;;;;;;5099432;28;20461;-66
2022/02/12 08:59:11;;;;;;;24.40;15.13;;;0.90;99.90;;;;;;5099895;28;20464;-66
2022/02/12 09:01:40;;;;;;;24.80;15.90;;;0.90;99.90;;;;;;5099238;28;20446;-66
2022/02/12 09:04:09;;;;;;;29.73;15.70;;;1.10;99.90;;;;;;5099488;28;20817;-65
2022/02/12 09:06:36;;;;;;;25.10;15.10;;;1.20;99.90;;;;;;5100194;28;20477;-66
2022/02/12 09:09:04;;;;;;;25.30;14.63;;;1.30;99.90;;;;;;5100028;28;21005;-66
2022/02/12 09:11:32;;;;;;;22.30;14.07;;;1.10;99.90;;;;;;5097353;28;20451;-66
2022/02/12 09:13:59;;;;;;;20.80;13.40;;;1.10;99.90;;;;;;5099390;28;20446;-65
2022/02/12 09:16:27;;;;;;;19.60;13.30;;;1.10;99.90;;;;;;5091405;28;20445;-66
2022/02/12 09:18:54;;;;;;;20.07;13.10;;;1.20;99.90;;;;;;5080569;28;21145;-63
2022/02/12 09:21:21;;;;;;;28.63;14.60;;;1.40;99.90;;;;;;5081171;28;20479;-58
2022/02/12 09:23:48;;;;;;;17.20;12.33;;;1.70;99.90;;;;;;5087772;28;20442;-66
2022/02/12 09:26:15;;;;;;;18.80;13.37;;;1.80;99.90;;;;;;5089625;28;20505;-65
2022/02/12 09:28:43;;;;;;;18.00;12.00;;;1.90;99.90;;;;;;5090765;28;21014;-67
2022/02/12 09:31:10;;;;;;;19.93;13.70;;;2.00;99.90;;;;;;5092431;28;20829;-66
2022/02/12 09:33:38;;;;;;;18.57;14.20;;;2.20;99.90;;;;;;5091023;28;20461;-65
2022/02/12 09:36:05;;;;;;;20.27;15.13;;;2.50;99.90;;;;;;5091549;28;20538;-66
2022/02/12 09:38:33;;;;;;;18.73;13.30;;;2.80;99.90;;;;;;5092625;28;20494;-65
2022/02/12 09:41:00;;;;;;;17.27;13.10;;;3.10;99.90;;;;;;5091205;28;20446;-67
2022/02/12 09:43:29;;;;;;;18.67;14.17;;;3.40;99.90;;;;;;5083655;28;20457;-66
2022/02/12 09:46:27;;;;;;;16.50;13.00;;;3.70;99.90;;;;;;5093273;28;20481;-64
2022/02/12 09:48:54;;;;;;;17.50;12.67;;;4.10;99.90;;;;;;5090762;28;20475;-66
2022/02/12 09:51:23;;;;;;;18.20;11.30;;;4.40;99.90;;;;;;5093384;28;20451;-64
2022/02/12 09:53:50;;;;;;;15.73;10.50;;;4.70;99.90;;;;;;5094305;28;20458;-66
2022/02/12 09:56:17;;;;;;;15.37;11.40;;;5.00;99.90;;;;;;5086773;28;20986;-65
2022/02/12 09:58:44;;;;;;;17.50;12.00;;;5.40;99.90;;;;;;5083629;28;20473;-65
2022/02/12 10:01:12;;;;;;;16.37;12.50;;;5.80;99.90;;;;;;5090471;28;20534;-64
2022/02/12 10:03:39;;;;;;;14.70;10.63;;;6.20;99.90;;;;;;5084145;28;20440;-65
2022/02/12 10:06:06;;;;;;;14.33;9.00;;;6.50;99.90;;;;;;5098169;28;20819;-65
2022/02/12 10:08:37;;;;;;;13.23;10.33;;;6.70;99.90;;;;;;5092802;28;20496;-65
2022/02/12 10:11:12;;;;;;;13.23;8.83;;;6.90;99.90;;;;;;5084601;28;20507;-66
2022/02/12 10:13:39;;;;;;;13.40;9.30;;;7.10;99.90;;;;;;5083890;28;20434;-66
2022/02/12 10:16:06;;;;;;;9.90;8.37;;;7.20;99.90;;;;;;5086555;28;21252;-66
2022/02/12 10:18:39;;;;;;;10.43;9.20;;;7.70;99.90;;;;;;5082183;28;20463;-65
2022/02/12 10:21:07;;;;;;;11.17;9.17;;;7.80;99.90;;;;;;5076366;28;20545;-66
2022/02/12 10:23:35;;;;;;;14.03;9.87;;;8.10;99.90;;;;;;5083919;28;20457;-66
2022/02/12 10:26:10;;;;;;;14.73;9.70;;;8.40;99.90;;;;;;5083095;28;20499;-65
2022/02/12 10:28:38;;;;;;;10.37;7.83;;;8.60;99.90;;;;;;5089483;28;20480;-66
2022/02/12 10:31:06;;;;;;;12.63;8.93;;;8.60;99.90;;;;;;5078532;28;20455;-71
2022/02/12 10:33:42;;;;;;;13.47;9.80;;;8.90;99.90;;;;;;5081950;28;20992;-65
2022/02/12 10:36:14;;;;;;;12.87;7.50;;;9.40;99.90;;;;;;5085511;28;20470;-65
2022/02/12 10:38:46;;;;;;;12.37;7.37;;;9.70;99.90;;;;;;5085845;28;21298;-63
2022/02/12 10:41:15;;;;;;;12.00;6.90;;;10.10;99.90;;;;;;5074654;28;20550;-67
2022/02/12 10:43:43;;;;;;;9.33;6.67;;;10.40;99.90;;;;;;5079962;28;20447;-65
2022/02/12 10:46:11;;;;;;;8.80;6.83;;;10.60;99.90;;;;;;5081548;28;20447;-63
2022/02/12 10:48:40;;;;;;;9.80;7.27;;;10.70;99.90;;;;;;5083318;28;20490;-65
2022/02/12 10:51:11;;;;;;;12.70;6.80;;;11.00;99.90;;;;;;5083445;28;20451;-65
2022/02/12 10:53:38;;;;;;;14.03;6.90;;;11.40;99.90;;;;;;5072728;28;21766;-64
2022/02/12 10:56:06;;;;;;;9.13;6.07;;;11.50;99.90;;;;;;5072599;28;20451;-67
2022/02/12 10:58:34;;;;;;;10.70;6.40;;;11.60;99.90;;;;;;5072032;28;20466;-65
2022/02/12 11:01:03;;;;;;;9.80;5.73;;;11.80;99.90;;;;;;5084606;28;20478;-64
2022/02/12 11:03:34;;;;;;;12.37;6.43;;;12.30;99.90;;;;;;5071518;28;20443;-65
2022/02/12 11:06:02;;;;;;;9.63;6.23;;;12.90;99.90;;;;;;5081477;28;20473;-65
2022/02/12 11:08:30;;;;;;;8.27;4.80;;;13.10;99.90;;;;;;5071861;28;20474;-65
2022/02/12 11:10:57;;;;;;;6.80;4.87;;;13.00;99.90;;;;;;5072454;28;20451;-66
2022/02/12 11:13:24;;;;;;;6.50;4.10;;;13.10;99.90;;;;;;5084559;28;20595;-64
2022/02/12 11:15:51;;;;;;;7.77;4.23;;;13.10;99.60;;;;;;5087491;28;21037;-64
2022/02/12 11:18:20;;;;;;;6.50;4.70;;;13.30;98.70;;;;;;5082299;28;20556;-64
2022/02/12 11:20:48;;;;;;;8.10;4.63;;;13.20;98.10;;;;;;5074967;28;20557;-64
2022/02/12 11:23:27;;;;;;;7.10;4.80;;;13.60;98.30;;;;;;5079920;28;20503;-64
2022/02/12 11:25:55;;;;;;;7.70;4.80;;;13.60;97.00;;;;;;5077388;28;20451;-64
2022/02/12 11:28:29;;;;;;;7.60;4.30;;;13.50;96.20;;;;;;5075143;28;20483;-66
2022/02/12 11:31:17;;;;;;;7.90;4.33;;;14.10;96.40;;;;;;5073539;28;20530;-65
2022/02/12 11:34:20;;;;;;;6.47;4.80;;;14.70;96.00;;;;;;5083161;28;20466;-65
2022/02/12 11:36:48;;;;;;;7.73;4.80;;;14.80;95.00;;;;;;5010557;28;20451;-64
2022/02/12 11:39:18;;;;;;;10.70;4.83;;;14.70;93.70;;;;;;5016366;28;20492;-67
2022/02/12 11:41:47;;;;;;;7.70;5.07;;;14.10;94.10;;;;;;5050654;28;20442;-67
2022/02/12 11:44:39;;;;;;;7.30;4.90;;;13.20;94.70;;;;;;5084319;28;20452;-64
2022/02/12 11:47:07;;;;;;;16.20;4.87;;;12.30;96.50;;;;;;5077449;28;20483;-65
2022/02/12 11:49:35;;;;;;;7.53;5.03;;;11.80;97.10;;;;;;5081709;28;20481;-67
2022/02/12 11:52:07;;;;;;;5.90;4.20;;;12.30;97.10;;;;;;5079665;28;20463;-66
2022/02/12 11:55:00;;;;;;;5.90;3.57;;;12.90;97.20;;;;;;5077360;28;20461;-66
2022/02/12 11:57:44;;;;;;;9.43;4.60;;;13.60;94.60;;;;;;5083973;28;20932;-65
2022/02/12 12:00:37;;;;;;;7.20;3.40;;;14.00;94.00;;;;;;5085963;28;20873;-64
2022/02/12 12:03:11;;;;;;;5.60;3.20;;;13.70;92.00;;;;;;5088474;28;20450;-66
2022/02/12 12:05:38;;;;;;;6.03;3.50;;;13.50;91.00;;;;;;5090224;28;20516;-66
2022/02/12 12:08:10;;;;;;;5.27;2.90;;;12.90;92.10;;;;;;5090128;28;20482;-68
2022/02/12 12:10:40;;;;;;;4.87;3.53;;;12.20;92.70;;;;;;5090077;28;20880;-67
2022/02/12 12:13:42;;;;;;;4.63;3.40;;;11.30;93.80;;;;;;5088905;28;20441;-69
2022/02/12 12:16:33;;;;;;;5.70;2.77;;;10.70;95.70;;;;;;5077620;28;20453;-67
2022/02/12 12:19:02;;;;;;;8.40;2.70;;;10.20;95.70;;;;;;5076216;28;20490;-66
2022/02/12 12:21:30;;;;;;;5.67;2.87;;;9.80;97.00;;;;;;5084297;28;20969;-67
2022/02/12 12:24:00;;;;;;;4.77;2.50;;;9.30;96.20;;;;;;5073085;28;20451;-65
2022/02/12 12:26:45;;;;;;;4.93;2.60;;;9.00;96.40;;;;;;5081782;28;20454;-64
2022/02/12 12:32:06;;;;;;;5.43;3.10;;;8.80;97.50;;;;;;5075714;28;20430;-67
2022/02/12 12:34:34;;;;;;;5.23;3.00;;;8.60;96.60;;;;;;5069874;28;20548;-67
2022/02/12 12:37:03;;;;;;;5.10;2.97;;;8.50;97.00;;;;;;5075281;28;20455;-66
2022/02/12 12:39:36;;;;;;;3.17;2.33;;;8.50;96.90;;;;;;5081203;28;20531;-66
2022/02/12 12:42:14;;;;;;;5.30;3.17;;;8.30;96.80;;;;;;5075606;28;20449;-66
2022/02/12 12:44:42;;;;;;;5.17;3.00;;;8.20;97.20;;;;;;5071476;28;20450;-66
2022/02/12 12:47:09;;;;;;;5.50;2.83;;;8.30;97.90;;;;;;5087765;28;20511;-65
2022/02/12 12:49:40;;;;;;;6.37;4.13;;;8.40;98.30;;;;;;5090909;28;20468;-65